Terminal Aerodrome Forecast
Issued by NWS

Home | Current Version | Previous Version | Text Only | Print | Product List | Glossary On
Versions: 1 2 3 4 5 6 7 8 9 10 11 12 13 14 15 16 17 18 19 20 21 22 23 24 25 26 27 28 29 30 31 32 33 34 35 36 37
000
FTUS41 KBOX 281304 AAA
TAFMHT
TAF AMD
KMHT 281304Z 2813/2912 12006KT 2SM -TSRA BR FEW006CB BKN012 OVC020
     FM281330 18005KT P6SM OVC010
     FM282100 21007KT 4SM -SHRA VCTS BKN040CB
     FM290000 23006KT P6SM BKN050
     FM290900 27007KT P6SM SCT050=

USA.gov is the U.S. government's official web portal to all federal, state and local government web resources and services.